MSC Maeva — H9TF — position and weather

sailwx.info

Track history (hours):
 
Tides and Currents Weather Stations Pressure Air Temp Water Temp Dewpoint Dewpoint Depression Visibility Wind Speed Wind Dir Waves Ship Positions

MSC Maeva

Last reported at 2015-Jul-21 18:27 UTC. Time now 2015-Jul-30 16:07 UTC.
Position N 03°34' E 100°07'.
Warning: this ship's position is 8 days out of date.

Type: Ship. MMSI: 371851000.

Date/timePositionNaut miles runAvg speedWind from/ knotsBaromVisibWave heightAir tempDewpointWater temp
2015-Jul-21 18:27N 03°34' E 100°07'1415.2
2015-Jul-21 17:34N 03°25' E 100°17'3115.5
2015-Jul-21 15:33N 03°06' E 100°42'3014.8
2015-Jul-21 13:33N 02°48' E 101°05'2813.9
2015-Jul-21 11:33N 02°35' E 101°30'15812.1
2015-Jul-20 22:33N 01°16' E 103°46'0 0.2
2015-Jul-20 21:33N 01°16' E 103°46'0 0.0
2015-Jul-20 20:33N 01°16' E 103°46'0 0.0
2015-Jul-20 19:33N 01°16' E 103°46'0 0.0
2015-Jul-20 18:32N 01°16' E 103°46'0 0.0
2015-Jul-20 17:31N 01°16' E 103°46'0 0.0
2015-Jul-20 16:32N 01°16' E 103°46'0 0.0
2015-Jul-20 15:33N 01°16' E 103°46'0 0.0
2015-Jul-20 14:33N 01°16' E 103°46'0 0.0
2015-Jul-20 13:33N 01°16' E 103°46'0 0.0
2015-Jul-20 12:33N 01°16' E 103°46'0 0.0
2015-Jul-20 11:32N 01°16' E 103°46'0 0.0
2015-Jul-20 10:33N 01°16' E 103°46'0 0.0
2015-Jul-20 09:33N 01°16' E 103°46'0 0.0
2015-Jul-20 08:33N 01°16' E 103°46'0 0.0
2015-Jul-20 07:33N 01°16' E 103°46'0 0.0
2015-Jul-20 06:33N 01°16' E 103°46'0 0.0
2015-Jul-20 05:33N 01°16' E 103°46'1 1.2
2015-Jul-20 04:33N 01°15' E 103°47'7 6.7
2015-Jul-20 03:33N 01°14' E 103°53'8 7.3
2015-Jul-20 02:31N 01°16' E 104°01'1010.7
2015-Jul-20 01:33N 01°17' E 104°11'  
2015-Jul-16 22:33N 22°02' E 114°23'2412.2
2015-Jul-16 20:33N 22°20' E 114°05'1111.2
2015-Jul-16 19:33N 22°24' E 113°53'4 3.9
2015-Jul-16 18:33N 22°28' E 113°53'0 0.0
2015-Jul-16 17:33N 22°28' E 113°53'0 0.0
2015-Jul-16 16:33N 22°28' E 113°53'0 0.0
2015-Jul-16 15:33N 22°28' E 113°53'0 0.0
2015-Jul-16 14:33N 22°28' E 113°53'0 0.0
2015-Jul-16 13:33N 22°28' E 113°53'0 0.0
2015-Jul-16 12:33N 22°28' E 113°53'0 0.0
2015-Jul-16 11:33N 22°28' E 113°53'0 0.0
2015-Jul-16 10:33N 22°28' E 113°53'0 0.0
2015-Jul-16 09:33N 22°28' E 113°53'0 0.0
2015-Jul-16 08:33N 22°28' E 113°53'0 0.0
2015-Jul-16 07:34N 22°28' E 113°53'0 0.0
2015-Jul-16 06:33N 22°28' E 113°53'0 0.0
2015-Jul-16 05:33N 22°28' E 113°53'0 0.0
2015-Jul-16 04:33N 22°28' E 113°53'0 0.0
2015-Jul-16 03:33N 22°28' E 113°53'0 0.0
2015-Jul-16 02:33N 22°28' E 113°53'0 0.0
2015-Jul-16 01:33N 22°28' E 113°53'0 0.0
2015-Jul-16 00:33N 22°28' E 113°53'0 0.0
2015-Jul-15 23:34N 22°28' E 113°53'2 2.3
2015-Jul-15 22:33N 22°25' E 113°53'12 8.4
2015-Jul-15 21:09N 22°20' E 114°05'912.3
2015-Jul-15 20:25N 22°13' E 114°10'5 5.6
2015-Jul-15 19:34N 22°09' E 114°13'7 6.8
2015-Jul-15 18:33N 22°03' E 114°09'20 6.7
2015-Jul-15 15:33N 22°12' E 113°49'1413.7
2015-Jul-15 14:33N 22°26' E 113°45'1412.4
2015-Jul-15 13:27N 22°39' E 113°41'0 0.1
2015-Jul-15 09:33N 22°39' E 113°41'0 0.0
2015-Jul-15 08:32N 22°39' E 113°41'0 0.0
2015-Jul-15 07:33N 22°39' E 113°41'1 0.6
2015-Jul-15 05:19N 22°38' E 113°42'1112.3
2015-Jul-15 04:27N 22°27' E 113°45'1313.8
2015-Jul-15 03:33N 22°15' E 113°48'1513.7
2015-Jul-15 02:28N 22°01' E 113°52'1312.3
2015-Jul-15 01:25N 21°57' E 114°06'1515.7
2015-Jul-15 00:27N 21°59' E 114°22'59216.5
2015-Jul-13 12:27N 28°05' E 122°55'3417.5
2015-Jul-13 10:32N 28°34' E 123°15'1717.4
2015-Jul-13 09:33N 28°49' E 123°25'3717.6
2015-Jul-13 07:26N 29°20' E 123°48'7815.7
2015-Jul-13 02:26N 30°22' E 122°51'1818.1
2015-Jul-13 01:27N 30°30' E 122°33'1714.5
2015-Jul-13 00:15N 30°33' E 122°14'811.8
2015-Jul-12 23:33N 30°36' E 122°05'0 0.1
2015-Jul-12 22:33N 30°37' E 122°05'0 0.0
2015-Jul-12 21:33N 30°37' E 122°05'0 0.0
2015-Jul-12 20:32N 30°37' E 122°05'0 0.0
2015-Jul-12 19:33N 30°37' E 122°05'0 0.0
2015-Jul-12 18:30N 30°37' E 122°05'0 0.0
2015-Jul-12 17:33N 30°37' E 122°05'0 0.0
2015-Jul-12 16:33N 30°37' E 122°05'0 0.0
2015-Jul-12 15:32N 30°37' E 122°05'0 0.0
2015-Jul-12 14:29N 30°37' E 122°05'0 0.0
2015-Jul-12 13:33N 30°37' E 122°05'0 0.0
2015-Jul-12 12:33N 30°37' E 122°05'0 0.1
2015-Jul-12 11:33N 30°37' E 122°05'0 0.1
2015-Jul-12 10:33N 30°37' E 122°05'1 1.3
2015-Jul-12 09:33N 30°36' E 122°06'3013.0
2015-Jul-12 07:18N 30°28' E 122°39'1215.0
2015-Jul-12 06:30N 30°22' E 122°51'  
Track history (hours):
 
Tides and Currents Weather Stations Pressure Air Temp Water Temp Dewpoint Dewpoint Depression Visibility Wind Speed Wind Dir Waves Ship Positions

MSC Maeva

Last reported at 2015-Jul-21 18:27 UTC. Time now 2015-Jul-30 16:07 UTC.
Position N 03°34' E 100°07'.
Warning: this ship's position is 8 days out of date.

Type: Ship. MMSI: 371851000.

Date/timePositionNaut miles runAvg speedWind from/ knotsBaromVisibWave heightAir tempDewpointWater temp
2015-Jul-21 18:27N 03°34' E 100°07'1415.2
2015-Jul-21 17:34N 03°25' E 100°17'3115.5
2015-Jul-21 15:33N 03°06' E 100°42'3014.8
2015-Jul-21 13:33N 02°48' E 101°05'2813.9
2015-Jul-21 11:33N 02°35' E 101°30'15812.1
2015-Jul-20 22:33N 01°16' E 103°46'0 0.2
2015-Jul-20 21:33N 01°16' E 103°46'0 0.0
2015-Jul-20 20:33N 01°16' E 103°46'0 0.0
2015-Jul-20 19:33N 01°16' E 103°46'0 0.0
2015-Jul-20 18:32N 01°16' E 103°46'0 0.0
2015-Jul-20 17:31N 01°16' E 103°46'0 0.0
2015-Jul-20 16:32N 01°16' E 103°46'0 0.0
2015-Jul-20 15:33N 01°16' E 103°46'0 0.0
2015-Jul-20 14:33N 01°16' E 103°46'0 0.0
2015-Jul-20 13:33N 01°16' E 103°46'0 0.0
2015-Jul-20 12:33N 01°16' E 103°46'0 0.0
2015-Jul-20 11:32N 01°16' E 103°46'0 0.0
2015-Jul-20 10:33N 01°16' E 103°46'0 0.0
2015-Jul-20 09:33N 01°16' E 103°46'0 0.0
2015-Jul-20 08:33N 01°16' E 103°46'0 0.0
2015-Jul-20 07:33N 01°16' E 103°46'0 0.0
2015-Jul-20 06:33N 01°16' E 103°46'0 0.0
2015-Jul-20 05:33N 01°16' E 103°46'1 1.2
2015-Jul-20 04:33N 01°15' E 103°47'7 6.7
2015-Jul-20 03:33N 01°14' E 103°53'8 7.3
2015-Jul-20 02:31N 01°16' E 104°01'1010.7
2015-Jul-20 01:33N 01°17' E 104°11'  
2015-Jul-16 22:33N 22°02' E 114°23'2412.2
2015-Jul-16 20:33N 22°20' E 114°05'1111.2
2015-Jul-16 19:33N 22°24' E 113°53'4 3.9
2015-Jul-16 18:33N 22°28' E 113°53'0 0.0
2015-Jul-16 17:33N 22°28' E 113°53'0 0.0
2015-Jul-16 16:33N 22°28' E 113°53'0 0.0
2015-Jul-16 15:33N 22°28' E 113°53'0 0.0
2015-Jul-16 14:33N 22°28' E 113°53'0 0.0
2015-Jul-16 13:33N 22°28' E 113°53'0 0.0
2015-Jul-16 12:33N 22°28' E 113°53'0 0.0
2015-Jul-16 11:33N 22°28' E 113°53'0 0.0
2015-Jul-16 10:33N 22°28' E 113°53'0 0.0
2015-Jul-16 09:33N 22°28' E 113°53'0 0.0
2015-Jul-16 08:33N 22°28' E 113°53'0 0.0
2015-Jul-16 07:34N 22°28' E 113°53'0 0.0
2015-Jul-16 06:33N 22°28' E 113°53'0 0.0
2015-Jul-16 05:33N 22°28' E 113°53'0 0.0
2015-Jul-16 04:33N 22°28' E 113°53'0 0.0
2015-Jul-16 03:33N 22°28' E 113°53'0 0.0
2015-Jul-16 02:33N 22°28' E 113°53'0 0.0
2015-Jul-16 01:33N 22°28' E 113°53'0 0.0
2015-Jul-16 00:33N 22°28' E 113°53'0 0.0
2015-Jul-15 23:34N 22°28' E 113°53'2 2.3
2015-Jul-15 22:33N 22°25' E 113°53'12 8.4
2015-Jul-15 21:09N 22°20' E 114°05'912.3
2015-Jul-15 20:25N 22°13' E 114°10'5 5.6
2015-Jul-15 19:34N 22°09' E 114°13'7 6.8
2015-Jul-15 18:33N 22°03' E 114°09'20 6.7
2015-Jul-15 15:33N 22°12' E 113°49'1413.7
2015-Jul-15 14:33N 22°26' E 113°45'1412.4
2015-Jul-15 13:27N 22°39' E 113°41'0 0.1
2015-Jul-15 09:33N 22°39' E 113°41'0 0.0
2015-Jul-15 08:32N 22°39' E 113°41'0 0.0
2015-Jul-15 07:33N 22°39' E 113°41'1 0.6
2015-Jul-15 05:19N 22°38' E 113°42'1112.3
2015-Jul-15 04:27N 22°27' E 113°45'1313.8
2015-Jul-15 03:33N 22°15' E 113°48'1513.7
2015-Jul-15 02:28N 22°01' E 113°52'1312.3
2015-Jul-15 01:25N 21°57' E 114°06'1515.7
2015-Jul-15 00:27N 21°59' E 114°22'59216.5
2015-Jul-13 12:27N 28°05' E 122°55'3417.5
2015-Jul-13 10:32N 28°34' E 123°15'1717.4
2015-Jul-13 09:33N 28°49' E 123°25'3717.6
2015-Jul-13 07:26N 29°20' E 123°48'7815.7
2015-Jul-13 02:26N 30°22' E 122°51'1818.1
2015-Jul-13 01:27N 30°30' E 122°33'1714.5
2015-Jul-13 00:15N 30°33' E 122°14'811.8
2015-Jul-12 23:33N 30°36' E 122°05'0 0.1
2015-Jul-12 22:33N 30°37' E 122°05'0 0.0
2015-Jul-12 21:33N 30°37' E 122°05'0 0.0
2015-Jul-12 20:32N 30°37' E 122°05'0 0.0
2015-Jul-12 19:33N 30°37' E 122°05'0 0.0
2015-Jul-12 18:30N 30°37' E 122°05'0 0.0
2015-Jul-12 17:33N 30°37' E 122°05'0 0.0
2015-Jul-12 16:33N 30°37' E 122°05'0 0.0
2015-Jul-12 15:32N 30°37' E 122°05'0 0.0
2015-Jul-12 14:29N 30°37' E 122°05'0 0.0
2015-Jul-12 13:33N 30°37' E 122°05'0 0.0
2015-Jul-12 12:33N 30°37' E 122°05'0 0.1
2015-Jul-12 11:33N 30°37' E 122°05'0 0.1
2015-Jul-12 10:33N 30°37' E 122°05'1 1.3
2015-Jul-12 09:33N 30°36' E 122°06'3013.0
2015-Jul-12 07:18N 30°28' E 122°39'1215.0
2015-Jul-12 06:30N 30°22' E 122°51'  

Dump ship's entire track history